sensor_id;sensor_type;location;lat;lon;timestamp;pressure;altitude;pressure_sealevel;temperature;humidity
46291;BME280;32023;44.444;26.006;2023-04-04T00:01:40;99793.66;;;6.01;80.39
46291;BME280;32023;44.444;26.006;2023-04-04T00:04:06;99799.38;;;5.99;79.47
46291;BME280;32023;44.444;26.006;2023-04-04T00:06:34;99786.94;;;5.92;79.22
46291;BME280;32023;44.444;26.006;2023-04-04T00:09:09;99783.94;;;5.93;78.25
46291;BME280;32023;44.444;26.006;2023-04-04T00:11:35;99766.47;;;5.94;78.80
46291;BME280;32023;44.444;26.006;2023-04-04T00:14:02;99772.19;;;5.93;79.27
46291;BME280;32023;44.444;26.006;2023-04-04T00:16:29;99780.28;;;5.88;78.92
46291;BME280;32023;44.444;26.006;2023-04-04T00:18:56;99744.63;;;5.82;78.25
46291;BME280;32023;44.444;26.006;2023-04-04T00:21:24;99767.59;;;5.81;78.52
46291;BME280;32023;44.444;26.006;2023-04-04T00:24:00;99804.38;;;5.79;77.46
46291;BME280;32023;44.444;26.006;2023-04-04T00:26:27;99772.09;;;5.76;78.27
46291;BME280;32023;44.444;26.006;2023-04-04T00:28:55;99773.16;;;5.75;78.18
46291;BME280;32023;44.444;26.006;2023-04-04T00:31:28;99774.25;;;5.74;78.41
46291;BME280;32023;44.444;26.006;2023-04-04T00:34:01;99782.47;;;5.74;78.82
46291;BME280;32023;44.444;26.006;2023-04-04T00:36:33;99773.66;;;5.72;78.97
46291;BME280;32023;44.444;26.006;2023-04-04T00:38:59;99775.47;;;5.66;78.65
46291;BME280;32023;44.444;26.006;2023-04-04T00:41:29;99738.03;;;5.67;79.17
46291;BME280;32023;44.444;26.006;2023-04-04T00:43:57;99779.59;;;5.69;78.40
46291;BME280;32023;44.444;26.006;2023-04-04T00:46:27;99756.94;;;5.68;78.12
46291;BME280;32023;44.444;26.006;2023-04-04T00:49:02;99775.22;;;5.68;78.19
46291;BME280;32023;44.444;26.006;2023-04-04T00:51:29;99758.00;;;5.67;77.60
46291;BME280;32023;44.444;26.006;2023-04-04T00:54:01;99774.63;;;5.66;77.54
46291;BME280;32023;44.444;26.006;2023-04-04T00:56:29;99779.16;;;5.60;77.15
46291;BME280;32023;44.444;26.006;2023-04-04T00:59:00;99761.09;;;5.59;77.11
46291;BME280;32023;44.444;26.006;2023-04-04T01:01:27;99730.47;;;5.57;77.08
46291;BME280;32023;44.444;26.006;2023-04-04T01:03:59;99737.50;;;5.53;77.23
46291;BME280;32023;44.444;26.006;2023-04-04T01:06:29;99757.09;;;5.50;76.57
46291;BME280;32023;44.444;26.006;2023-04-04T01:08:58;99743.69;;;5.49;76.83
46291;BME280;32023;44.444;26.006;2023-04-04T01:11:25;99756.50;;;5.48;77.26
46291;BME280;32023;44.444;26.006;2023-04-04T01:13:53;99765.31;;;5.39;76.71
46291;BME280;32023;44.444;26.006;2023-04-04T01:16:19;99757.28;;;5.32;76.82
46291;BME280;32023;44.444;26.006;2023-04-04T01:18:53;99713.47;;;5.27;76.98
46291;BME280;32023;44.444;26.006;2023-04-04T01:21:29;99723.22;;;5.23;76.28
46291;BME280;32023;44.444;26.006;2023-04-04T01:24:00;99745.53;;;5.20;76.72
46291;BME280;32023;44.444;26.006;2023-04-04T01:26:27;99750.50;;;5.23;77.62
46291;BME280;32023;44.444;26.006;2023-04-04T01:28:57;99712.78;;;5.20;76.56
46291;BME280;32023;44.444;26.006;2023-04-04T01:40:43;99745.78;;;5.07;77.37
46291;BME280;32023;44.444;26.006;2023-04-04T01:43:21;99729.31;;;5.02;78.10
46291;BME280;32023;44.444;26.006;2023-04-04T01:45:50;99724.78;;;5.07;78.51
46291;BME280;32023;44.444;26.006;2023-04-04T01:48:18;99714.59;;;5.03;77.42
46291;BME280;32023;44.444;26.006;2023-04-04T01:50:49;99738.56;;;5.01;78.19
46291;BME280;32023;44.444;26.006;2023-04-04T01:53:19;99723.16;;;4.95;78.61
46291;BME280;32023;44.444;26.006;2023-04-04T01:55:46;99724.81;;;4.96;79.15
46291;BME280;32023;44.444;26.006;2023-04-04T01:58:19;99709.88;;;4.98;78.99
46291;BME280;32023;44.444;26.006;2023-04-04T02:04:08;99699.06;;;4.92;79.79
46291;BME280;32023;44.444;26.006;2023-04-04T02:06:43;99699.91;;;4.92;80.26
46291;BME280;32023;44.444;26.006;2023-04-04T02:12:04;99673.59;;;4.86;81.22
46291;BME280;32023;44.444;26.006;2023-04-04T02:14:43;99687.72;;;4.83;80.80
46291;BME280;32023;44.444;26.006;2023-04-04T02:17:12;99687.94;;;4.81;81.37
46291;BME280;32023;44.444;26.006;2023-04-04T02:19:45;99675.84;;;4.77;81.61
46291;BME280;32023;44.444;26.006;2023-04-04T02:22:24;99705.84;;;4.77;81.15
46291;BME280;32023;44.444;26.006;2023-04-04T02:28:14;99672.53;;;4.75;81.64
46291;BME280;32023;44.444;26.006;2023-04-04T02:33:38;99656.63;;;4.72;81.71
46291;BME280;32023;44.444;26.006;2023-04-04T02:36:11;99663.28;;;4.76;81.65
46291;BME280;32023;44.444;26.006;2023-04-04T02:38:38;99670.41;;;4.77;81.44
46291;BME280;32023;44.444;26.006;2023-04-04T02:41:09;99673.72;;;4.79;82.13
46291;BME280;32023;44.444;26.006;2023-04-04T02:43:55;99680.59;;;4.82;81.50
46291;BME280;32023;44.444;26.006;2023-04-04T02:46:23;99665.63;;;4.84;81.23
46291;BME280;32023;44.444;26.006;2023-04-04T02:48:57;99674.44;;;4.87;81.27
46291;BME280;32023;44.444;26.006;2023-04-04T02:51:48;99655.91;;;4.89;81.44
46291;BME280;32023;44.444;26.006;2023-04-04T02:54:19;99657.22;;;4.86;81.40
46291;BME280;32023;44.444;26.006;2023-04-04T02:56:52;99673.81;;;4.84;80.56
46291;BME280;32023;44.444;26.006;2023-04-04T02:59:27;99698.38;;;4.84;80.55
46291;BME280;32023;44.444;26.006;2023-04-04T03:01:59;99678.56;;;4.89;81.03
46291;BME280;32023;44.444;26.006;2023-04-04T03:07:10;99696.25;;;4.87;81.36
46291;BME280;32023;44.444;26.006;2023-04-04T03:09:53;99704.66;;;4.85;80.99
46291;BME280;32023;44.444;26.006;2023-04-04T03:12:25;99698.38;;;4.84;81.18
46291;BME280;32023;44.444;26.006;2023-04-04T03:14:54;99709.75;;;4.81;80.67
46291;BME280;32023;44.444;26.006;2023-04-04T03:17:31;99707.25;;;4.80;80.76
46291;BME280;32023;44.444;26.006;2023-04-04T03:20:27;99695.41;;;4.86;80.38
46291;BME280;32023;44.444;26.006;2023-04-04T03:23:02;99706.56;;;4.84;79.54
46291;BME280;32023;44.444;26.006;2023-04-04T03:25:35;99701.44;;;4.88;79.71
46291;BME280;32023;44.444;26.006;2023-04-04T03:28:20;99704.78;;;4.90;79.39
46291;BME280;32023;44.444;26.006;2023-04-04T03:31:11;99728.00;;;4.93;79.10
46291;BME280;32023;44.444;26.006;2023-04-04T03:33:46;99709.03;;;4.98;79.17
46291;BME280;32023;44.444;26.006;2023-04-04T03:36:26;99726.00;;;5.00;79.07
46291;BME280;32023;44.444;26.006;2023-04-04T03:39:10;99697.66;;;5.01;78.82
46291;BME280;32023;44.444;26.006;2023-04-04T03:41:56;99673.31;;;4.99;78.82
46291;BME280;32023;44.444;26.006;2023-04-04T03:44:33;99670.34;;;5.01;78.77
46291;BME280;32023;44.444;26.006;2023-04-04T03:47:17;99687.69;;;4.95;78.92
46291;BME280;32023;44.444;26.006;2023-04-04T03:53:07;99696.47;;;4.97;79.82
46291;BME280;32023;44.444;26.006;2023-04-04T03:55:49;99708.91;;;4.93;79.75
46291;BME280;32023;44.444;26.006;2023-04-04T03:58:18;99692.44;;;4.88;79.94
46291;BME280;32023;44.444;26.006;2023-04-04T04:00:51;99682.69;;;4.92;80.35
46291;BME280;32023;44.444;26.006;2023-04-04T04:03:33;99657.72;;;4.83;80.20
46291;BME280;32023;44.444;26.006;2023-04-04T04:06:09;99665.28;;;4.81;80.43
46291;BME280;32023;44.444;26.006;2023-04-04T04:08:42;99661.16;;;4.78;80.64
46291;BME280;32023;44.444;26.006;2023-04-04T04:11:09;99674.44;;;4.87;80.91
46291;BME280;32023;44.444;26.006;2023-04-04T04:13:36;99687.47;;;4.84;80.33
46291;BME280;32023;44.444;26.006;2023-04-04T04:16:05;99686.63;;;4.84;80.69
46291;BME280;32023;44.444;26.006;2023-04-04T04:18:34;99684.72;;;4.84;80.82
46291;BME280;32023;44.444;26.006;2023-04-04T04:21:04;99691.25;;;4.83;80.24
46291;BME280;32023;44.444;26.006;2023-04-04T04:23:38;99665.16;;;4.88;80.31
46291;BME280;32023;44.444;26.006;2023-04-04T04:26:09;99703.34;;;4.88;80.65
46291;BME280;32023;44.444;26.006;2023-04-04T04:28:40;99673.59;;;4.86;80.46
46291;BME280;32023;44.444;26.006;2023-04-04T04:31:07;99696.25;;;4.87;80.40
46291;BME280;32023;44.444;26.006;2023-04-04T04:33:35;99700.03;;;4.85;79.93
46291;BME280;32023;44.444;26.006;2023-04-04T04:36:05;99705.00;;;4.89;80.63
46291;BME280;32023;44.444;26.006;2023-04-04T04:38:34;99720.66;;;4.81;79.78
46291;BME280;32023;44.444;26.006;2023-04-04T04:41:01;99717.81;;;4.76;79.99
46291;BME280;32023;44.444;26.006;2023-04-04T04:43:37;99744.38;;;4.69;80.92
46291;BME280;32023;44.444;26.006;2023-04-04T04:46:03;99756.97;;;4.70;80.75
46291;BME280;32023;44.444;26.006;2023-04-04T04:48:35;99754.81;;;4.72;80.84
46291;BME280;32023;44.444;26.006;2023-04-04T04:51:12;99747.81;;;4.65;80.11
46291;BME280;32023;44.444;26.006;2023-04-04T04:53:41;99743.81;;;4.67;80.84
46291;BME280;32023;44.444;26.006;2023-04-04T04:56:08;99732.41;;;4.70;81.00
46291;BME280;32023;44.444;26.006;2023-04-04T04:58:34;99710.59;;;4.70;80.75
46291;BME280;32023;44.444;26.006;2023-04-04T05:01:01;99718.56;;;4.72;80.31
46291;BME280;32023;44.444;26.006;2023-04-04T05:03:27;99719.97;;;4.74;80.91
46291;BME280;32023;44.444;26.006;2023-04-04T05:05:54;99715.94;;;4.77;81.15
46291;BME280;32023;44.444;26.006;2023-04-04T05:08:20;99719.97;;;4.74;81.32
46291;BME280;32023;44.444;26.006;2023-04-04T05:10:48;99683.56;;;4.69;81.05
46291;BME280;32023;44.444;26.006;2023-04-04T05:13:14;99690.69;;;4.70;81.15
46291;BME280;32023;44.444;26.006;2023-04-04T05:15:41;99712.25;;;4.71;81.24
46291;BME280;32023;44.444;26.006;2023-04-04T05:18:07;99701.94;;;4.73;80.92
46291;BME280;32023;44.444;26.006;2023-04-04T05:20:34;99693.19;;;4.71;81.02
46291;BME280;32023;44.444;26.006;2023-04-04T05:23:00;99719.34;;;4.72;80.21
46291;BME280;32023;44.444;26.006;2023-04-04T05:25:27;99716.19;;;4.75;80.45
46291;BME280;32023;44.444;26.006;2023-04-04T05:27:54;99696.34;;;4.80;80.23
46291;BME280;32023;44.444;26.006;2023-04-04T05:30:21;99699.56;;;4.77;80.00
46291;BME280;32023;44.444;26.006;2023-04-04T05:32:51;99709.41;;;4.78;79.97
46291;BME280;32023;44.444;26.006;2023-04-04T05:35:20;99704.78;;;4.78;80.02
46291;BME280;32023;44.444;26.006;2023-04-04T05:37:47;99699.91;;;4.80;80.17
46291;BME280;32023;44.444;26.006;2023-04-04T05:40:13;99685.44;;;4.80;80.49
46291;BME280;32023;44.444;26.006;2023-04-04T05:42:39;99686.97;;;4.88;81.00
46291;BME280;32023;44.444;26.006;2023-04-04T05:45:06;99659.25;;;4.91;80.50
46291;BME280;32023;44.444;26.006;2023-04-04T05:47:33;99682.47;;;4.93;79.97
46291;BME280;32023;44.444;26.006;2023-04-04T05:49:59;99673.66;;;5.03;80.73
46291;BME280;32023;44.444;26.006;2023-04-04T05:52:37;99667.75;;;5.06;79.53
46291;BME280;32023;44.444;26.006;2023-04-04T05:55:05;99654.19;;;5.11;79.87
46291;BME280;32023;44.444;26.006;2023-04-04T05:57:32;99670.34;;;5.12;79.45
46291;BME280;32023;44.444;26.006;2023-04-04T05:59:58;99676.38;;;5.14;79.24
46291;BME280;32023;44.444;26.006;2023-04-04T06:02:25;99666.28;;;5.15;79.71
46291;BME280;32023;44.444;26.006;2023-04-04T06:04:51;99650.97;;;5.14;79.22
46291;BME280;32023;44.444;26.006;2023-04-04T06:07:20;99627.41;;;5.08;78.60
46291;BME280;32023;44.444;26.006;2023-04-04T06:09:46;99638.19;;;5.03;78.25
46291;BME280;32023;44.444;26.006;2023-04-04T06:12:12;99673.09;;;5.01;77.77
46291;BME280;32023;44.444;26.006;2023-04-04T06:14:48;99623.75;;;5.02;78.55
46291;BME280;32023;44.444;26.006;2023-04-04T06:17:14;99641.19;;;5.01;77.87
46291;BME280;32023;44.444;26.006;2023-04-04T06:19:48;99630.84;;;5.03;77.46
46291;BME280;32023;44.444;26.006;2023-04-04T06:22:20;99640.91;;;5.03;77.52
46291;BME280;32023;44.444;26.006;2023-04-04T06:24:58;99650.19;;;5.02;77.10
46291;BME280;32023;44.444;26.006;2023-04-04T06:27:42;99619.00;;;4.98;77.29
46291;BME280;32023;44.444;26.006;2023-04-04T06:30:45;99608.00;;;4.93;77.39
46291;BME280;32023;44.444;26.006;2023-04-04T06:33:37;99606.31;;;4.92;76.82
46291;BME280;32023;44.444;26.006;2023-04-04T06:36:25;99597.31;;;4.91;77.06
46291;BME280;32023;44.444;26.006;2023-04-04T06:43:18;99581.25;;;5.06;77.75
46291;BME280;32023;44.444;26.006;2023-04-04T06:52:46;99601.84;;;5.14;76.34
46291;BME280;32023;44.444;26.006;2023-04-04T06:55:50;99530.69;;;4.87;76.03
46291;BME280;32023;44.444;26.006;2023-04-04T07:11:27;99537.06;;;5.21;74.88
46291;BME280;32023;44.444;26.006;2023-04-04T07:14:15;99556.25;;;5.26;75.11
46291;BME280;32023;44.444;26.006;2023-04-04T07:17:09;99525.16;;;5.27;74.39
46291;BME280;32023;44.444;26.006;2023-04-04T07:20:02;99556.84;;;5.28;74.33
46291;BME280;32023;44.444;26.006;2023-04-04T07:29:21;99559.47;;;5.23;74.86
46291;BME280;32023;44.444;26.006;2023-04-04T07:32:05;99580.50;;;5.11;74.83
46291;BME280;32023;44.444;26.006;2023-04-04T07:35:00;99614.81;;;5.07;75.18
46291;BME280;32023;44.444;26.006;2023-04-04T07:38:00;99622.66;;;5.03;75.63
46291;BME280;32023;44.444;26.006;2023-04-04T07:55:29;99657.22;;;4.86;78.13
46291;BME280;32023;44.444;26.006;2023-04-04T08:01:43;99650.72;;;4.75;79.45
46291;BME280;32023;44.444;26.006;2023-04-04T08:07:51;99674.78;;;4.67;80.46
46291;BME280;32023;44.444;26.006;2023-04-04T08:14:09;99672.19;;;4.60;81.01
46291;BME280;32023;44.444;26.006;2023-04-04T08:17:03;99680.75;;;4.64;81.59
46291;BME280;32023;44.444;26.006;2023-04-04T08:19:49;99687.47;;;4.61;81.56
46291;BME280;32023;44.444;26.006;2023-04-04T08:22:16;99685.34;;;4.63;81.90
46291;BME280;32023;44.444;26.006;2023-04-04T08:24:54;99667.94;;;4.64;82.39
46291;BME280;32023;44.444;26.006;2023-04-04T08:30:57;99651.44;;;4.59;83.18
46291;BME280;32023;44.444;26.006;2023-04-04T08:36:35;99669.56;;;4.54;83.52
46291;BME280;32023;44.444;26.006;2023-04-04T08:39:06;99661.16;;;4.55;84.36
46291;BME280;32023;44.444;26.006;2023-04-04T08:41:42;99669.94;;;4.57;84.62
46291;BME280;32023;44.444;26.006;2023-04-04T08:44:40;99644.69;;;4.62;84.46
46291;BME280;32023;44.444;26.006;2023-04-04T08:47:10;99654.19;;;4.59;84.38
46291;BME280;32023;44.444;26.006;2023-04-04T08:49:47;99673.25;;;4.59;84.08
46291;BME280;32023;44.444;26.006;2023-04-04T08:52:35;99651.44;;;4.59;84.20
46291;BME280;32023;44.444;26.006;2023-04-04T08:55:15;99662.34;;;4.59;83.97
46291;BME280;32023;44.444;26.006;2023-04-04T09:04:44;99628.81;;;4.59;83.96
46291;BME280;32023;44.444;26.006;2023-04-04T09:07:54;99648.25;;;4.62;83.56
46291;BME280;32023;44.444;26.006;2023-04-04T09:11:17;99645.50;;;4.62;83.32
46291;BME280;32023;44.444;26.006;2023-04-04T09:17:17;99655.44;;;4.68;83.66
46291;BME280;32023;44.444;26.006;2023-04-04T09:23:03;99651.66;;;4.69;83.81
46291;BME280;32023;44.444;26.006;2023-04-04T09:25:49;99637.81;;;4.71;83.74
46291;BME280;32023;44.444;26.006;2023-04-04T09:38:44;99636.69;;;4.83;82.53
46291;BME280;32023;44.444;26.006;2023-04-04T09:41:28;99636.47;;;4.85;82.34
46291;BME280;32023;44.444;26.006;2023-04-04T09:51:02;99643.56;;;4.98;82.44
46291;BME280;32023;44.444;26.006;2023-04-04T09:57:02;99627.09;;;4.93;80.86
46291;BME280;32023;44.444;26.006;2023-04-04T10:00:09;99642.38;;;4.94;81.53
46291;BME280;32023;44.444;26.006;2023-04-04T10:07:33;99660.50;;;5.00;81.90
46291;BME280;32023;44.444;26.006;2023-04-04T10:20:56;99637.63;;;5.01;81.96
46291;BME280;32023;44.444;26.006;2023-04-04T10:23:30;99672.03;;;5.02;82.08
46291;BME280;32023;44.444;26.006;2023-04-04T10:26:10;99663.94;;;5.07;82.05
46291;BME280;32023;44.444;26.006;2023-04-04T10:32:13;99658.00;;;5.10;83.02
46291;BME280;32023;44.444;26.006;2023-04-04T10:38:01;99673.28;;;5.11;84.21
46291;BME280;32023;44.444;26.006;2023-04-04T10:40:37;99650.88;;;5.09;83.82
46291;BME280;32023;44.444;26.006;2023-04-04T10:43:29;99646.97;;;5.05;83.14
46291;BME280;32023;44.444;26.006;2023-04-04T10:46:13;99661.81;;;5.09;83.95
46291;BME280;32023;44.444;26.006;2023-04-04T10:55:43;99657.34;;;5.31;85.12
46291;BME280;32023;44.444;26.006;2023-04-04T10:58:28;99628.56;;;5.12;84.14
46291;BME280;32023;44.444;26.006;2023-04-04T11:01:29;99639.41;;;5.35;84.32
46291;BME280;32023;44.444;26.006;2023-04-04T11:04:50;99664.34;;;5.27;84.18
46291;BME280;32023;44.444;26.006;2023-04-04T11:07:58;99642.22;;;5.40;84.85
46291;BME280;32023;44.444;26.006;2023-04-04T11:10:52;99657.06;;;5.32;84.10
46291;BME280;32023;44.444;26.006;2023-04-04T11:14:09;99640.81;;;5.38;84.40
46291;BME280;32023;44.444;26.006;2023-04-04T11:23:30;99645.94;;;5.34;83.33
46291;BME280;32023;44.444;26.006;2023-04-04T11:32:28;99632.31;;;5.22;83.40
46291;BME280;32023;44.444;26.006;2023-04-04T11:35:21;99652.03;;;5.24;83.52
46291;BME280;32023;44.444;26.006;2023-04-04T11:42:25;99659.38;;;5.24;82.85
46291;BME280;32023;44.444;26.006;2023-04-04T11:49:12;99656.41;;;5.25;83.11
46291;BME280;32023;44.444;26.006;2023-04-04T11:58:53;99645.97;;;5.22;83.54
46291;BME280;32023;44.444;26.006;2023-04-04T12:08:24;99664.50;;;5.20;84.33
46291;BME280;32023;44.444;26.006;2023-04-04T12:11:59;99653.97;;;5.12;84.66
46291;BME280;32023;44.444;26.006;2023-04-04T12:15:22;99662.50;;;5.16;85.72
46291;BME280;32023;44.444;26.006;2023-04-04T12:18:09;99649.91;;;5.15;85.38
46291;BME280;32023;44.444;26.006;2023-04-04T12:24:38;99645.91;;;5.06;86.93
46291;BME280;32023;44.444;26.006;2023-04-04T12:27:16;99656.00;;;5.05;86.95
46291;BME280;32023;44.444;26.006;2023-04-04T12:30:15;99655.84;;;5.12;87.01
46291;BME280;32023;44.444;26.006;2023-04-04T12:36:32;99665.13;;;4.99;86.60
46291;BME280;32023;44.444;26.006;2023-04-04T12:45:55;99669.06;;;4.92;88.41
46291;BME280;32023;44.444;26.006;2023-04-04T12:52:25;99667.16;;;4.92;88.64
46291;BME280;32023;44.444;26.006;2023-04-04T12:58:03;99673.69;;;4.91;88.98
46291;BME280;32023;44.444;26.006;2023-04-04T13:00:43;99664.91;;;5.01;89.35
46291;BME280;32023;44.444;26.006;2023-04-04T13:03:21;99666.91;;;5.05;89.52
46291;BME280;32023;44.444;26.006;2023-04-04T13:06:01;99661.31;;;5.12;89.78
46291;BME280;32023;44.444;26.006;2023-04-04T13:08:59;99674.84;;;5.07;89.46
46291;BME280;32023;44.444;26.006;2023-04-04T13:18:30;99679.88;;;4.98;89.33
46291;BME280;32023;44.444;26.006;2023-04-04T13:21:37;99689.34;;;4.96;90.25
46291;BME280;32023;44.444;26.006;2023-04-04T13:24:35;99700.94;;;5.03;90.51
46291;BME280;32023;44.444;26.006;2023-04-04T13:27:37;99692.38;;;5.11;90.47
46291;BME280;32023;44.444;26.006;2023-04-04T13:30:37;99691.81;;;5.09;90.25
46291;BME280;32023;44.444;26.006;2023-04-04T13:33:51;99694.06;;;5.12;89.27
46291;BME280;32023;44.444;26.006;2023-04-04T13:40:16;99553.47;;;4.18;89.15
46291;BME280;32023;44.444;26.006;2023-04-04T13:54:03;99702.94;;;5.19;89.85
46291;BME280;32023;44.444;26.006;2023-04-04T13:56:52;99688.81;;;5.22;89.10
46291;BME280;32023;44.444;26.006;2023-04-04T13:59:38;99686.44;;;5.14;89.08
46291;BME280;32023;44.444;26.006;2023-04-04T14:02:31;99699.53;;;5.12;89.37
46291;BME280;32023;44.444;26.006;2023-04-04T14:05:01;99698.81;;;5.16;89.14
46291;BME280;32023;44.444;26.006;2023-04-04T14:07:35;99703.66;;;5.14;89.74
46291;BME280;32023;44.444;26.006;2023-04-04T14:10:05;99704.25;;;5.16;89.76
46291;BME280;32023;44.444;26.006;2023-04-04T14:12:44;99713.28;;;5.17;89.29
46291;BME280;32023;44.444;26.006;2023-04-04T14:15:34;99685.84;;;4.72;89.35
46291;BME280;32023;44.444;26.006;2023-04-04T14:18:17;99704.59;;;5.20;89.15
46291;BME280;32023;44.444;26.006;2023-04-04T14:27:40;99697.13;;;5.15;89.60
46291;BME280;32023;44.444;26.006;2023-04-04T14:30:21;99701.88;;;5.20;89.91
46291;BME280;32023;44.444;26.006;2023-04-04T14:33:14;99695.44;;;5.26;90.04
46291;BME280;32023;44.444;26.006;2023-04-04T14:46:39;99701.91;;;5.48;89.82
46291;BME280;32023;44.444;26.006;2023-04-04T14:59:54;99722.97;;;5.36;88.91
46291;BME280;32023;44.444;26.006;2023-04-04T15:02:57;99725.25;;;5.27;89.72
46291;BME280;32023;44.444;26.006;2023-04-04T15:05:40;99726.06;;;5.28;89.92
46291;BME280;32023;44.444;26.006;2023-04-04T15:08:07;99731.03;;;5.31;90.28
46291;BME280;32023;44.444;26.006;2023-04-04T15:10:44;99737.34;;;5.31;89.88
46291;BME280;32023;44.444;26.006;2023-04-04T15:15:59;99740.06;;;5.31;90.16
46291;BME280;32023;44.444;26.006;2023-04-04T15:19:00;99740.16;;;5.25;90.36
46291;BME280;32023;44.444;26.006;2023-04-04T15:21:29;99734.72;;;5.25;90.77
46291;BME280;32023;44.444;26.006;2023-04-04T15:26:49;99738.19;;;5.20;90.42
46291;BME280;32023;44.444;26.006;2023-04-04T15:29:16;99749.09;;;5.20;90.45
46291;BME280;32023;44.444;26.006;2023-04-04T15:31:43;99741.41;;;5.17;90.56
46291;BME280;32023;44.444;26.006;2023-04-04T15:34:12;99747.66;;;5.18;90.75
46291;BME280;32023;44.444;26.006;2023-04-04T15:36:46;99748.41;;;5.13;90.40
46291;BME280;32023;44.444;26.006;2023-04-04T15:45:37;99752.19;;;5.24;90.42
46291;BME280;32023;44.444;26.006;2023-04-04T15:48:23;99756.09;;;5.28;89.83
46291;BME280;32023;44.444;26.006;2023-04-04T15:51:13;99757.00;;;5.33;90.30
46291;BME280;32023;44.444;26.006;2023-04-04T15:54:14;99757.72;;;5.29;89.57
46291;BME280;32023;44.444;26.006;2023-04-04T15:56:43;99759.41;;;5.30;89.58
46291;BME280;32023;44.444;26.006;2023-04-04T15:59:17;99758.34;;;5.31;89.24
46291;BME280;32023;44.444;26.006;2023-04-04T16:01:50;99754.19;;;5.28;89.67
46291;BME280;32023;44.444;26.006;2023-04-04T16:04:16;99756.66;;;5.30;89.70
46291;BME280;32023;44.444;26.006;2023-04-04T16:07:01;99767.00;;;5.28;89.97
46291;BME280;32023;44.444;26.006;2023-04-04T16:09:45;99758.22;;;5.26;89.29
46291;BME280;32023;44.444;26.006;2023-04-04T16:12:17;99772.00;;;5.19;88.73
46291;BME280;32023;44.444;26.006;2023-04-04T16:14:49;99777.09;;;5.16;89.01
46291;BME280;32023;44.444;26.006;2023-04-04T16:17:23;99779.22;;;5.14;88.68
46291;BME280;32023;44.444;26.006;2023-04-04T16:19:51;99772.50;;;5.05;88.70
46291;BME280;32023;44.444;26.006;2023-04-04T16:26:07;99786.50;;;4.97;88.92
46291;BME280;32023;44.444;26.006;2023-04-04T16:28:58;99782.94;;;4.96;88.68
46291;BME280;32023;44.444;26.006;2023-04-04T16:38:36;99802.38;;;5.00;89.24
46291;BME280;32023;44.444;26.006;2023-04-04T16:41:10;99799.78;;;5.05;89.21
46291;BME280;32023;44.444;26.006;2023-04-04T16:44:00;99799.16;;;5.03;89.01
46291;BME280;32023;44.444;26.006;2023-04-04T16:46:36;99797.06;;;5.05;88.93
46291;BME280;32023;44.444;26.006;2023-04-04T16:49:43;99806.91;;;5.06;89.37
46291;BME280;32023;44.444;26.006;2023-04-04T16:52:16;99809.72;;;5.11;89.66
46291;BME280;32023;44.444;26.006;2023-04-04T16:55:18;99800.47;;;5.12;89.01
46291;BME280;32023;44.444;26.006;2023-04-04T17:01:07;99811.03;;;5.20;89.26
46291;BME280;32023;44.444;26.006;2023-04-04T17:03:37;99817.00;;;5.17;89.32
46291;BME280;32023;44.444;26.006;2023-04-04T17:06:06;99816.03;;;5.23;89.02
46291;BME280;32023;44.444;26.006;2023-04-04T17:08:33;99820.78;;;5.27;89.34
46291;BME280;32023;44.444;26.006;2023-04-04T17:11:00;99816.25;;;5.33;88.73
46291;BME280;32023;44.444;26.006;2023-04-04T17:13:38;99815.19;;;5.34;88.90
46291;BME280;32023;44.444;26.006;2023-04-04T17:38:18;99833.66;;;5.55;88.96
46291;BME280;32023;44.444;26.006;2023-04-04T17:41:00;99837.13;;;5.62;89.03
46291;BME280;32023;44.444;26.006;2023-04-04T17:43:39;99851.34;;;5.64;89.01
46291;BME280;32023;44.444;26.006;2023-04-04T17:46:17;99845.50;;;5.72;88.53
46291;BME280;32023;44.444;26.006;2023-04-04T17:48:51;99847.28;;;5.78;88.74
46291;BME280;32023;44.444;26.006;2023-04-04T17:51:18;99853.69;;;5.84;88.99
46291;BME280;32023;44.444;26.006;2023-04-04T17:53:55;99849.16;;;5.90;88.88
46291;BME280;32023;44.444;26.006;2023-04-04T17:56:37;99860.72;;;5.92;88.63
46291;BME280;32023;44.444;26.006;2023-04-04T17:59:08;99857.47;;;5.95;88.81
46291;BME280;32023;44.444;26.006;2023-04-04T18:01:41;99867.91;;;5.98;88.20
46291;BME280;32023;44.444;26.006;2023-04-04T18:04:16;99875.06;;;5.99;88.64
46291;BME280;32023;44.444;26.006;2023-04-04T18:06:44;99868.91;;;5.92;88.27
46291;BME280;32023;44.444;26.006;2023-04-04T18:09:16;99876.75;;;5.76;87.83
46291;BME280;32023;44.444;26.006;2023-04-04T18:11:54;99882.22;;;5.65;88.49
46291;BME280;32023;44.444;26.006;2023-04-04T18:14:32;99881.41;;;5.53;89.43
46291;BME280;32023;44.444;26.006;2023-04-04T18:17:01;99889.25;;;5.49;90.06
46291;BME280;32023;44.444;26.006;2023-04-04T18:19:34;99890.44;;;5.42;91.26
46291;BME280;32023;44.444;26.006;2023-04-04T18:22:04;99889.59;;;5.41;91.55
46291;BME280;32023;44.444;26.006;2023-04-04T18:24:30;99884.97;;;5.42;92.16
46291;BME280;32023;44.444;26.006;2023-04-04T18:26:57;99883.66;;;5.44;92.56
46291;BME280;32023;44.444;26.006;2023-04-04T18:29:23;99897.78;;;5.41;92.91
46291;BME280;32023;44.444;26.006;2023-04-04T18:31:54;99900.50;;;5.41;92.87
46291;BME280;32023;44.444;26.006;2023-04-04T18:34:21;99893.38;;;5.40;93.38
46291;BME280;32023;44.444;26.006;2023-04-04T18:36:47;99895.75;;;5.37;93.44
46291;BME280;32023;44.444;26.006;2023-04-04T18:39:20;99893.28;;;5.35;93.52
46291;BME280;32023;44.444;26.006;2023-04-04T18:41:53;99891.13;;;5.25;94.13
46291;BME280;32023;44.444;26.006;2023-04-04T18:44:46;99892.31;;;5.18;94.98
46291;BME280;32023;44.444;26.006;2023-04-04T18:47:14;99900.97;;;5.15;95.35
46291;BME280;32023;44.444;26.006;2023-04-04T18:50:22;99900.97;;;5.15;95.34
46291;BME280;32023;44.444;26.006;2023-04-04T18:53:08;99903.47;;;5.16;95.96
46291;BME280;32023;44.444;26.006;2023-04-04T18:55:40;99903.38;;;5.23;95.94
46291;BME280;32023;44.444;26.006;2023-04-04T18:58:12;99903.00;;;5.31;95.87
46291;BME280;32023;44.444;26.006;2023-04-04T19:13:39;99913.22;;;5.36;95.53